sensor_id;sensor_type;location;lat;lon;timestamp;temperature;humidity
63407;SHT31;49543;45.892;10.838;2024-01-07T06:58:24;8.17;80.03
63407;SHT31;49543;45.892;10.838;2024-01-07T07:00:50;8.17;79.86
63407;SHT31;49543;45.892;10.838;2024-01-07T07:03:16;8.15;80.08
63407;SHT31;49543;45.892;10.838;2024-01-07T07:05:41;8.17;80.23
63407;SHT31;49543;45.892;10.838;2024-01-07T07:08:07;8.15;79.99
63407;SHT31;49543;45.892;10.838;2024-01-07T07:10:32;8.15;80.88
63407;SHT31;49543;45.892;10.838;2024-01-07T07:13:01;8.17;80.90
63407;SHT31;49543;45.892;10.838;2024-01-07T07:15:28;8.17;80.79
63407;SHT31;49543;45.892;10.838;2024-01-07T09:00:31;8.41;83.19
63407;SHT31;49543;45.892;10.838;2024-01-07T09:02:59;8.39;82.89
63407;SHT31;49543;45.892;10.838;2024-01-07T09:05:24;8.39;82.69
63407;SHT31;49543;45.892;10.838;2024-01-07T09:07:50;8.42;83.30
63407;SHT31;49543;45.892;10.838;2024-01-07T09:10:16;8.45;84.26
63407;SHT31;49543;45.892;10.838;2024-01-07T09:12:43;8.42;84.83
63407;SHT31;49543;45.892;10.838;2024-01-07T09:15:08;8.41;84.86
63407;SHT31;49543;45.892;10.838;2024-01-07T09:17:36;8.36;84.80
63407;SHT31;49543;45.892;10.838;2024-01-07T09:20:07;8.38;84.29
63407;SHT31;49543;45.892;10.838;2024-01-07T09:22:33;8.38;84.60
63407;SHT31;49543;45.892;10.838;2024-01-07T09:25:01;8.38;84.87
63407;SHT31;49543;45.892;10.838;2024-01-07T09:27:27;8.39;85.39
63407;SHT31;49543;45.892;10.838;2024-01-07T09:29:53;8.38;85.25
63407;SHT31;49543;45.892;10.838;2024-01-07T09:32:18;8.41;85.46
63407;SHT31;49543;45.892;10.838;2024-01-07T09:34:44;8.41;85.04
63407;SHT31;49543;45.892;10.838;2024-01-07T09:37:09;8.39;84.55
63407;SHT31;49543;45.892;10.838;2024-01-07T10:02:53;8.52;84.93
63407;SHT31;49543;45.892;10.838;2024-01-07T10:05:18;8.52;84.93
63407;SHT31;49543;45.892;10.838;2024-01-07T10:07:44;8.49;85.32
63407;SHT31;49543;45.892;10.838;2024-01-07T10:10:17;8.49;85.26
63407;SHT31;49543;45.892;10.838;2024-01-07T10:12:46;8.52;85.78
63407;SHT31;49543;45.892;10.838;2024-01-07T10:15:12;8.49;86.12
63407;SHT31;49543;45.892;10.838;2024-01-07T10:17:38;8.52;86.49
63407;SHT31;49543;45.892;10.838;2024-01-07T10:20:05;8.49;86.69
63407;SHT31;49543;45.892;10.838;2024-01-07T10:22:35;8.49;86.84
63407;SHT31;49543;45.892;10.838;2024-01-07T10:25:00;8.50;87.08
63407;SHT31;49543;45.892;10.838;2024-01-07T10:27:26;8.48;87.17
63407;SHT31;49543;45.892;10.838;2024-01-07T10:29:51;8.49;87.04
63407;SHT31;49543;45.892;10.838;2024-01-07T10:32:20;8.48;85.99
63407;SHT31;49543;45.892;10.838;2024-01-07T10:34:46;8.48;85.42
63407;SHT31;49543;45.892;10.838;2024-01-07T10:37:12;8.53;85.94
63407;SHT31;49543;45.892;10.838;2024-01-07T10:39:38;8.53;85.93
63407;SHT31;49543;45.892;10.838;2024-01-07T10:42:04;8.55;85.94
63407;SHT31;49543;45.892;10.838;2024-01-07T10:44:31;8.55;86.01
63407;SHT31;49543;45.892;10.838;2024-01-07T10:46:57;8.55;85.23
63407;SHT31;49543;45.892;10.838;2024-01-07T10:49:25;8.53;84.63
63407;SHT31;49543;45.892;10.838;2024-01-07T10:54:28;8.60;84.54
63407;SHT31;49543;45.892;10.838;2024-01-07T10:56:58;8.60;84.90
63407;SHT31;49543;45.892;10.838;2024-01-07T10:59:24;8.66;85.54
63407;SHT31;49543;45.892;10.838;2024-01-07T11:01:50;8.64;84.68
63407;SHT31;49543;45.892;10.838;2024-01-07T11:04:27;8.63;84.68
63407;SHT31;49543;45.892;10.838;2024-01-07T11:07:05;8.66;84.61
63407;SHT31;49543;45.892;10.838;2024-01-07T11:09:46;8.67;84.89
63407;SHT31;49543;45.892;10.838;2024-01-07T11:12:16;8.70;85.52
63407;SHT31;49543;45.892;10.838;2024-01-07T11:14:44;8.69;85.67
63407;SHT31;49543;45.892;10.838;2024-01-07T11:17:13;8.70;85.94
63407;SHT31;49543;45.892;10.838;2024-01-07T11:19:53;8.72;86.45
63407;SHT31;49543;45.892;10.838;2024-01-07T11:22:40;8.73;87.04
63407;SHT31;49543;45.892;10.838;2024-01-07T11:25:32;8.73;88.20
63407;SHT31;49543;45.892;10.838;2024-01-07T11:27:58;8.74;88.29
63407;SHT31;49543;45.892;10.838;2024-01-07T11:30:24;8.74;87.12
63407;SHT31;49543;45.892;10.838;2024-01-07T11:32:59;8.76;86.83
63407;SHT31;49543;45.892;10.838;2024-01-07T11:38:18;8.80;85.27
63407;SHT31;49543;45.892;10.838;2024-01-07T11:40:44;8.81;83.18
63407;SHT31;49543;45.892;10.838;2024-01-07T11:43:10;8.85;83.60
63407;SHT31;49543;45.892;10.838;2024-01-07T11:45:36;8.90;83.82
63407;SHT31;49543;45.892;10.838;2024-01-07T11:48:02;8.88;83.78
63407;SHT31;49543;45.892;10.838;2024-01-07T11:50:27;8.93;83.88
63407;SHT31;49543;45.892;10.838;2024-01-07T11:52:53;8.96;83.91
63407;SHT31;49543;45.892;10.838;2024-01-07T11:55:20;8.97;84.51
63407;SHT31;49543;45.892;10.838;2024-01-07T11:57:46;9.00;84.94
63407;SHT31;49543;45.892;10.838;2024-01-07T12:00:11;8.99;84.00
63407;SHT31;49543;45.892;10.838;2024-01-07T12:02:37;9.01;83.95
63407;SHT31;49543;45.892;10.838;2024-01-07T12:05:03;9.04;83.42
63407;SHT31;49543;45.892;10.838;2024-01-07T12:07:29;9.05;83.28
63407;SHT31;49543;45.892;10.838;2024-01-07T12:09:56;9.10;82.48
63407;SHT31;49543;45.892;10.838;2024-01-07T12:12:26;9.12;82.53
63407;SHT31;49543;45.892;10.838;2024-01-07T12:14:52;9.14;82.35
63407;SHT31;49543;45.892;10.838;2024-01-07T12:17:18;9.15;81.70
63407;SHT31;49543;45.892;10.838;2024-01-07T12:19:46;9.17;81.54
63407;SHT31;49543;45.892;10.838;2024-01-07T12:22:13;9.22;81.01
63407;SHT31;49543;45.892;10.838;2024-01-07T12:24:44;9.27;81.28
63407;SHT31;49543;45.892;10.838;2024-01-07T12:27:09;9.31;79.65
63407;SHT31;49543;45.892;10.838;2024-01-07T12:29:35;9.35;79.81
63407;SHT31;49543;45.892;10.838;2024-01-07T12:32:01;9.38;79.82
63407;SHT31;49543;45.892;10.838;2024-01-07T12:34:28;9.43;78.78
63407;SHT31;49543;45.892;10.838;2024-01-07T12:36:56;9.43;78.82
63407;SHT31;49543;45.892;10.838;2024-01-07T12:39:21;9.48;79.13
63407;SHT31;49543;45.892;10.838;2024-01-07T12:41:47;9.48;80.50
63407;SHT31;49543;45.892;10.838;2024-01-07T12:44:16;9.48;80.14
63407;SHT31;49543;45.892;10.838;2024-01-07T12:46:47;9.49;78.44
63407;SHT31;49543;45.892;10.838;2024-01-07T12:49:15;9.52;78.29
63407;SHT31;49543;45.892;10.838;2024-01-07T12:51:42;9.56;77.65
63407;SHT31;49543;45.892;10.838;2024-01-07T12:54:07;9.60;77.85
63407;SHT31;49543;45.892;10.838;2024-01-07T12:56:33;9.60;77.97
63407;SHT31;49543;45.892;10.838;2024-01-07T12:59:02;9.62;77.97
63407;SHT31;49543;45.892;10.838;2024-01-07T13:01:27;9.63;77.44
63407;SHT31;49543;45.892;10.838;2024-01-07T13:03:53;9.65;78.26
63407;SHT31;49543;45.892;10.838;2024-01-07T13:06:18;9.63;80.12
63407;SHT31;49543;45.892;10.838;2024-01-07T13:08:46;9.66;79.30
63407;SHT31;49543;45.892;10.838;2024-01-07T13:11:15;9.70;79.06
63407;SHT31;49543;45.892;10.838;2024-01-07T13:13:41;9.67;77.24
63407;SHT31;49543;45.892;10.838;2024-01-07T13:16:07;9.69;77.73
63407;SHT31;49543;45.892;10.838;2024-01-07T13:18:32;9.75;77.34
63407;SHT31;49543;45.892;10.838;2024-01-07T13:20:58;9.77;78.40
63407;SHT31;49543;45.892;10.838;2024-01-07T13:23:23;9.77;78.50
63407;SHT31;49543;45.892;10.838;2024-01-07T13:25:49;9.73;78.61
63407;SHT31;49543;45.892;10.838;2024-01-07T13:28:14;9.72;79.19
63407;SHT31;49543;45.892;10.838;2024-01-07T13:30:40;9.72;79.42
63407;SHT31;49543;45.892;10.838;2024-01-07T13:33:06;9.70;78.81
63407;SHT31;49543;45.892;10.838;2024-01-07T13:35:31;9.67;78.93
63407;SHT31;49543;45.892;10.838;2024-01-07T13:37:59;9.67;78.09
63407;SHT31;49543;45.892;10.838;2024-01-07T13:40:35;9.66;77.84
63407;SHT31;49543;45.892;10.838;2024-01-07T13:43:06;9.67;76.76
63407;SHT31;49543;45.892;10.838;2024-01-07T13:45:40;9.70;77.04
63407;SHT31;49543;45.892;10.838;2024-01-07T13:48:09;9.72;76.98
63407;SHT31;49543;45.892;10.838;2024-01-07T13:50:42;9.73;76.15
63407;SHT31;49543;45.892;10.838;2024-01-07T13:53:11;9.76;77.49
63407;SHT31;49543;45.892;10.838;2024-01-07T13:55:41;9.77;77.57
63407;SHT31;49543;45.892;10.838;2024-01-07T13:58:14;9.76;76.46
63407;SHT31;49543;45.892;10.838;2024-01-07T14:00:40;9.75;76.92
63407;SHT31;49543;45.892;10.838;2024-01-07T14:03:06;9.76;75.99
63407;SHT31;49543;45.892;10.838;2024-01-07T14:05:32;9.80;77.33
63407;SHT31;49543;45.892;10.838;2024-01-07T14:07:57;9.79;76.55
63407;SHT31;49543;45.892;10.838;2024-01-07T14:10:25;9.76;76.54
63407;SHT31;49543;45.892;10.838;2024-01-07T14:12:51;9.76;77.01
63407;SHT31;49543;45.892;10.838;2024-01-07T14:15:17;9.76;75.86
63407;SHT31;49543;45.892;10.838;2024-01-07T14:17:43;9.80;75.69
63407;SHT31;49543;45.892;10.838;2024-01-07T14:20:09;9.79;76.78
63407;SHT31;49543;45.892;10.838;2024-01-07T14:22:35;9.83;75.54
63407;SHT31;49543;45.892;10.838;2024-01-07T14:25:01;9.82;75.64
63407;SHT31;49543;45.892;10.838;2024-01-07T16:25:01;9.89;72.65
63407;SHT31;49543;45.892;10.838;2024-01-07T16:27:44;9.87;74.20
63407;SHT31;49543;45.892;10.838;2024-01-07T16:30:16;9.84;74.69
63407;SHT31;49543;45.892;10.838;2024-01-07T16:32:44;9.84;74.79
63407;SHT31;49543;45.892;10.838;2024-01-07T16:35:10;9.82;76.28
63407;SHT31;49543;45.892;10.838;2024-01-07T16:37:36;9.80;76.81
63407;SHT31;49543;45.892;10.838;2024-01-07T16:40:12;9.76;76.54
63407;SHT31;49543;45.892;10.838;2024-01-07T16:42:38;9.75;76.41
63407;SHT31;49543;45.892;10.838;2024-01-07T16:45:07;9.75;75.87
63407;SHT31;49543;45.892;10.838;2024-01-07T16:47:38;9.72;76.18
63407;SHT31;49543;45.892;10.838;2024-01-07T16:50:04;9.75;76.87
63407;SHT31;49543;45.892;10.838;2024-01-07T16:52:30;9.72;76.87
63407;SHT31;49543;45.892;10.838;2024-01-07T16:54:56;9.76;76.57
63407;SHT31;49543;45.892;10.838;2024-01-07T16:57:21;9.75;76.89
63407;SHT31;49543;45.892;10.838;2024-01-07T16:59:47;9.72;76.40
63407;SHT31;49543;45.892;10.838;2024-01-07T17:02:13;9.76;76.09
63407;SHT31;49543;45.892;10.838;2024-01-07T17:04:38;9.77;76.18
63407;SHT31;49543;45.892;10.838;2024-01-07T17:07:04;9.79;75.24
63407;SHT31;49543;45.892;10.838;2024-01-07T17:09:31;9.83;75.53
63407;SHT31;49543;45.892;10.838;2024-01-07T17:11:56;9.83;75.47
63407;SHT31;49543;45.892;10.838;2024-01-07T17:14:22;9.84;75.87
63407;SHT31;49543;45.892;10.838;2024-01-07T17:16:47;9.86;75.68
63407;SHT31;49543;45.892;10.838;2024-01-07T17:19:13;9.83;76.33
63407;SHT31;49543;45.892;10.838;2024-01-07T17:21:38;9.82;76.30
63407;SHT31;49543;45.892;10.838;2024-01-07T17:24:04;9.80;75.90
63407;SHT31;49543;45.892;10.838;2024-01-07T17:26:29;9.79;75.93
63407;SHT31;49543;45.892;10.838;2024-01-07T17:28:56;9.79;76.83
63407;SHT31;49543;45.892;10.838;2024-01-07T17:31:22;9.77;76.49
63407;SHT31;49543;45.892;10.838;2024-01-07T17:33:47;9.77;76.52
63407;SHT31;49543;45.892;10.838;2024-01-07T17:36:17;9.75;77.05
63407;SHT31;49543;45.892;10.838;2024-01-07T17:38:46;9.77;76.45
63407;SHT31;49543;45.892;10.838;2024-01-07T17:41:14;9.75;75.47
63407;SHT31;49543;45.892;10.838;2024-01-07T17:43:40;9.76;75.39
63407;SHT31;49543;45.892;10.838;2024-01-07T17:46:08;9.77;75.71
63407;SHT31;49543;45.892;10.838;2024-01-07T17:48:37;9.77;76.14
63407;SHT31;49543;45.892;10.838;2024-01-07T17:51:06;9.76;75.99
63407;SHT31;49543;45.892;10.838;2024-01-07T17:53:33;9.76;76.14
63407;SHT31;49543;45.892;10.838;2024-01-07T17:56:26;9.79;75.81
63407;SHT31;49543;45.892;10.838;2024-01-07T17:58:53;9.77;76.46
63407;SHT31;49543;45.892;10.838;2024-01-07T18:01:25;9.80;75.88
63407;SHT31;49543;45.892;10.838;2024-01-07T18:03:53;9.82;75.24
63407;SHT31;49543;45.892;10.838;2024-01-07T18:06:18;9.80;74.78
63407;SHT31;49543;45.892;10.838;2024-01-07T18:08:46;9.83;74.62
63407;SHT31;49543;45.892;10.838;2024-01-07T18:11:11;9.84;74.92
63407;SHT31;49543;45.892;10.838;2024-01-07T18:13:37;9.84;74.60
63407;SHT31;49543;45.892;10.838;2024-01-07T18:16:02;9.86;74.58
63407;SHT31;49543;45.892;10.838;2024-01-07T18:18:28;9.89;74.37
63407;SHT31;49543;45.892;10.838;2024-01-07T18:20:55;9.91;74.37
63407;SHT31;49543;45.892;10.838;2024-01-07T18:23:21;9.87;75.54
63407;SHT31;49543;45.892;10.838;2024-01-07T18:25:46;9.91;74.47
63407;SHT31;49543;45.892;10.838;2024-01-07T18:28:16;9.89;73.80
63407;SHT31;49543;45.892;10.838;2024-01-07T18:30:42;9.93;73.78
63407;SHT31;49543;45.892;10.838;2024-01-07T18:33:09;9.93;73.86
63407;SHT31;49543;45.892;10.838;2024-01-07T18:35:35;9.94;73.97
63407;SHT31;49543;45.892;10.838;2024-01-07T18:38:01;9.90;74.14
63407;SHT31;49543;45.892;10.838;2024-01-07T18:40:30;9.93;74.34
63407;SHT31;49543;45.892;10.838;2024-01-07T18:42:55;9.93;74.41
63407;SHT31;49543;45.892;10.838;2024-01-07T18:45:25;9.89;74.37
63407;SHT31;49543;45.892;10.838;2024-01-07T18:47:56;9.91;73.96
63407;SHT31;49543;45.892;10.838;2024-01-07T18:50:32;9.91;72.98
63407;SHT31;49543;45.892;10.838;2024-01-07T18:52:58;9.94;72.98
63407;SHT31;49543;45.892;10.838;2024-01-07T18:55:26;9.93;72.52
63407;SHT31;49543;45.892;10.838;2024-01-07T18:57:54;9.95;72.26
63407;SHT31;49543;45.892;10.838;2024-01-07T19:00:19;9.98;72.55
63407;SHT31;49543;45.892;10.838;2024-01-07T19:02:47;10.03;72.61
63407;SHT31;49543;45.892;10.838;2024-01-07T19:05:15;10.03;72.75
63407;SHT31;49543;45.892;10.838;2024-01-07T19:07:45;10.00;72.89
63407;SHT31;49543;45.892;10.838;2024-01-07T19:10:16;10.03;73.18
63407;SHT31;49543;45.892;10.838;2024-01-07T19:13:05;10.01;72.09
63407;SHT31;49543;45.892;10.838;2024-01-07T19:15:35;10.04;72.36
63407;SHT31;49543;45.892;10.838;2024-01-07T19:18:05;10.03;72.92
63407;SHT31;49543;45.892;10.838;2024-01-07T19:20:32;10.03;74.42
63407;SHT31;49543;45.892;10.838;2024-01-07T19:23:03;10.00;73.23
63407;SHT31;49543;45.892;10.838;2024-01-07T19:25:31;10.00;72.01
63407;SHT31;49543;45.892;10.838;2024-01-07T19:27:57;10.00;73.01
63407;SHT31;49543;45.892;10.838;2024-01-07T19:30:22;10.04;73.04
63407;SHT31;49543;45.892;10.838;2024-01-07T19:32:49;10.03;73.37
63407;SHT31;49543;45.892;10.838;2024-01-07T19:35:15;10.01;74.02
63407;SHT31;49543;45.892;10.838;2024-01-07T19:37:42;9.98;73.50
63407;SHT31;49543;45.892;10.838;2024-01-07T19:40:08;9.97;73.32
63407;SHT31;49543;45.892;10.838;2024-01-07T19:42:34;9.97;73.34
63407;SHT31;49543;45.892;10.838;2024-01-07T19:44:59;9.95;73.19
63407;SHT31;49543;45.892;10.838;2024-01-07T19:47:30;9.97;73.28
63407;SHT31;49543;45.892;10.838;2024-01-07T19:49:58;9.93;73.44
63407;SHT31;49543;45.892;10.838;2024-01-07T19:52:29;9.94;73.86
63407;SHT31;49543;45.892;10.838;2024-01-07T19:54:59;9.95;74.12
63407;SHT31;49543;45.892;10.838;2024-01-07T19:57:30;9.93;73.40
63407;SHT31;49543;45.892;10.838;2024-01-07T20:00:03;9.91;73.51
63407;SHT31;49543;45.892;10.838;2024-01-07T20:02:33;9.91;73.28
63407;SHT31;49543;45.892;10.838;2024-01-07T20:05:05;9.93;73.09
63407;SHT31;49543;45.892;10.838;2024-01-07T20:07:35;9.91;73.10
63407;SHT31;49543;45.892;10.838;2024-01-07T20:10:08;9.90;73.08
63407;SHT31;49543;45.892;10.838;2024-01-07T20:12:36;9.95;73.25
63407;SHT31;49543;45.892;10.838;2024-01-07T20:15:17;9.93;73.91
63407;SHT31;49543;45.892;10.838;2024-01-07T20:17:47;9.90;74.12
63407;SHT31;49543;45.892;10.838;2024-01-07T20:20:12;9.91;74.07
63407;SHT31;49543;45.892;10.838;2024-01-07T20:22:43;9.86;74.05
63407;SHT31;49543;45.892;10.838;2024-01-07T20:25:12;9.89;75.09
63407;SHT31;49543;45.892;10.838;2024-01-07T20:27:43;9.84;74.14
63407;SHT31;49543;45.892;10.838;2024-01-07T20:30:14;9.87;74.41
63407;SHT31;49543;45.892;10.838;2024-01-07T20:32:46;9.86;73.73
63407;SHT31;49543;45.892;10.838;2024-01-07T20:35:11;9.86;73.81
63407;SHT31;49543;45.892;10.838;2024-01-07T20:37:47;9.84;74.56
63407;SHT31;49543;45.892;10.838;2024-01-07T20:40:15;9.83;74.14
63407;SHT31;49543;45.892;10.838;2024-01-07T20:42:46;9.86;73.12
63407;SHT31;49543;45.892;10.838;2024-01-07T20:45:14;9.83;73.46
63407;SHT31;49543;45.892;10.838;2024-01-07T20:47:40;9.83;73.56
63407;SHT31;49543;45.892;10.838;2024-01-07T20:50:06;9.86;73.13
63407;SHT31;49543;45.892;10.838;2024-01-07T20:52:37;9.83;72.70
63407;SHT31;49543;45.892;10.838;2024-01-07T20:55:07;9.84;71.85
63407;SHT31;49543;45.892;10.838;2024-01-07T20:57:35;9.83;71.66
63407;SHT31;49543;45.892;10.838;2024-01-07T21:00:05;9.89;71.49
63407;SHT31;49543;45.892;10.838;2024-01-07T21:02:34;9.87;71.96
63407;SHT31;49543;45.892;10.838;2024-01-07T21:04:59;9.89;71.72
63407;SHT31;49543;45.892;10.838;2024-01-07T21:07:26;9.87;71.47
63407;SHT31;49543;45.892;10.838;2024-01-07T21:09:51;9.90;71.41
63407;SHT31;49543;45.892;10.838;2024-01-07T21:14:52;9.91;71.60
63407;SHT31;49543;45.892;10.838;2024-01-07T21:17:19;9.90;71.70
63407;SHT31;49543;45.892;10.838;2024-01-07T21:19:47;9.90;72.08
63407;SHT31;49543;45.892;10.838;2024-01-07T21:22:15;9.90;71.87
63407;SHT31;49543;45.892;10.838;2024-01-07T21:24:43;9.90;71.55
63407;SHT31;49543;45.892;10.838;2024-01-07T21:27:08;9.91;71.76
63407;SHT31;49543;45.892;10.838;2024-01-07T21:29:34;9.93;71.44
63407;SHT31;49543;45.892;10.838;2024-01-07T21:32:00;9.91;71.44
63407;SHT31;49543;45.892;10.838;2024-01-07T21:34:25;9.93;71.70
63407;SHT31;49543;45.892;10.838;2024-01-07T21:36:50;9.91;72.08
63407;SHT31;49543;45.892;10.838;2024-01-07T21:39:21;9.93;71.86
63407;SHT31;49543;45.892;10.838;2024-01-07T21:41:47;9.93;71.34
63407;SHT31;49543;45.892;10.838;2024-01-07T21:44:14;9.94;71.03
63407;SHT31;49543;45.892;10.838;2024-01-07T21:46:47;9.94;70.67
63407;SHT31;49543;45.892;10.838;2024-01-07T21:49:13;9.95;70.47
63407;SHT31;49543;45.892;10.838;2024-01-07T21:51:54;9.95;71.00
63407;SHT31;49543;45.892;10.838;2024-01-07T21:54:20;9.95;71.92
63407;SHT31;49543;45.892;10.838;2024-01-07T21:56:47;9.94;70.95
63407;SHT31;49543;45.892;10.838;2024-01-07T21:59:13;9.94;70.66
63407;SHT31;49543;45.892;10.838;2024-01-07T22:01:44;9.95;70.52
63407;SHT31;49543;45.892;10.838;2024-01-07T22:04:10;9.98;70.48
63407;SHT31;49543;45.892;10.838;2024-01-07T22:06:43;9.94;70.73
63407;SHT31;49543;45.892;10.838;2024-01-07T22:09:08;9.97;70.37
63407;SHT31;49543;45.892;10.838;2024-01-07T22:11:34;9.94;70.31
63407;SHT31;49543;45.892;10.838;2024-01-07T22:14:03;9.93;70.20
63407;SHT31;49543;45.892;10.838;2024-01-07T22:16:28;9.91;71.00
63407;SHT31;49543;45.892;10.838;2024-01-07T22:18:54;9.90;70.57
63407;SHT31;49543;45.892;10.838;2024-01-07T22:21:20;9.89;71.07
63407;SHT31;49543;45.892;10.838;2024-01-07T22:23:48;9.89;70.61
63407;SHT31;49543;45.892;10.838;2024-01-07T22:26:14;9.89;71.03
63407;SHT31;49543;45.892;10.838;2024-01-07T22:28:41;9.90;71.36
63407;SHT31;49543;45.892;10.838;2024-01-07T22:31:10;9.90;70.53
63407;SHT31;49543;45.892;10.838;2024-01-07T22:33:36;9.89;71.18
63407;SHT31;49543;45.892;10.838;2024-01-07T22:36:01;9.87;71.62
63407;SHT31;49543;45.892;10.838;2024-01-07T22:38:27;9.86;71.49
63407;SHT31;49543;45.892;10.838;2024-01-07T22:40:52;9.84;71.64
63407;SHT31;49543;45.892;10.838;2024-01-07T22:43:18;9.84;71.32
63407;SHT31;49543;45.892;10.838;2024-01-07T22:45:48;9.84;70.15
63407;SHT31;49543;45.892;10.838;2024-01-07T22:48:14;9.89;70.11
63407;SHT31;49543;45.892;10.838;2024-01-07T22:50:41;9.86;70.86
63407;SHT31;49543;45.892;10.838;2024-01-07T22:53:08;9.87;71.03
